Time;durP1;ratioP1;P1;durP2;ratioP2;P2;SDS_P1;SDS_P2;PMS_P1;PMS_P2;Temp;Humidity;BMP_temperature;BMP_pressure;BME280_temperature;BME280_humidity;BME280_pressure;Samples;Min_cycle;Max_cycle;Signal;HPM_P1;HPM_P2
2022/11/12 00:02:12;;;;;;;7.03;4.00;;;;;;;10.22;100.00;100147.69;5098634;28;20076;-59
2022/11/12 00:04:38;;;;;;;6.05;3.40;;;;;;;10.21;100.00;100144.28;5081698;28;20035;-59
2022/11/12 00:07:03;;;;;;;6.65;4.07;;;;;;;10.18;100.00;100150.53;5086882;28;20023;-59
2022/11/12 00:09:28;;;;;;;7.30;4.13;;;;;;;9.71;100.00;100079.22;5099858;28;20713;-59
2022/11/12 00:11:54;;;;;;;6.38;3.38;;;;;;;10.11;100.00;100138.03;5099932;27;20027;-59
2022/11/12 00:14:19;;;;;;;6.60;3.22;;;;;;;10.13;100.00;100138.75;5101303;28;20070;-61
2022/11/12 00:16:45;;;;;;;6.22;3.35;;;;;;;9.95;100.00;100100.09;5083094;28;20130;-60
2022/11/12 00:19:10;;;;;;;7.07;3.40;;;;;;;10.15;100.00;100137.75;5099454;28;20590;-59
2022/11/12 00:21:36;;;;;;;6.22;3.65;;;;;;;10.16;100.00;100141.97;5096398;28;20832;-59
2022/11/12 00:24:01;;;;;;;6.45;3.50;;;;;;;10.10;100.00;100137.22;5102677;28;20030;-59
2022/11/12 00:26:27;;;;;;;6.55;3.80;;;;;;;9.90;100.00;100090.97;5098358;28;20036;-60
2022/11/12 00:28:52;;;;;;;7.15;3.20;;;;;;;9.88;100.00;100095.44;5098693;28;20102;-59
2022/11/12 00:31:17;;;;;;;8.27;3.70;;;;;;;10.02;100.00;100123.91;5101805;28;20572;-59
2022/11/12 00:33:43;;;;;;;6.38;3.92;;;;;;;9.96;100.00;100129.50;5096972;28;20080;-59
2022/11/12 00:36:10;;;;;;;6.50;3.35;;;;;;;10.00;100.00;100123.16;5093245;28;20036;-59
2022/11/12 00:38:35;;;;;;;8.85;3.78;;;;;;;10.01;100.00;100125.66;5107121;27;20603;-60
2022/11/12 00:41:01;;;;;;;6.85;3.63;;;;;;;10.08;100.00;100128.69;5098796;28;20028;-60
2022/11/12 00:43:27;;;;;;;6.18;3.60;;;;;;;9.92;100.00;100128.06;5083554;28;20049;-60
2022/11/12 00:45:52;;;;;;;6.97;3.40;;;;;;;9.65;100.00;100089.19;5098227;28;20100;-60
2022/11/12 00:48:18;;;;;;;6.25;3.55;;;;;;;9.87;100.00;100123.16;5101582;28;20500;-59
2022/11/12 00:50:43;;;;;;;6.88;3.58;;;;;;;9.88;100.00;100126.63;5100607;28;20120;-59
2022/11/12 00:53:09;;;;;;;6.53;3.10;;;;;;;9.91;100.00;100122.03;5100328;28;20135;-60
2022/11/12 00:55:34;;;;;;;6.55;3.65;;;;;;;9.71;100.00;100088.75;5082016;28;20036;-60
2022/11/12 00:58:00;;;;;;;7.25;3.90;;;;;;;9.81;100.00;100098.44;5099632;28;20115;-60
2022/11/12 01:00:25;;;;;;;5.95;3.42;;;;;;;9.81;100.00;100115.78;5094137;28;20034;-59
2022/11/12 01:02:51;;;;;;;6.22;3.60;;;;;;;9.75;100.00;100114.44;5098415;28;20042;-59
2022/11/12 01:05:17;;;;;;;6.72;3.72;;;;;;;9.80;100.00;100103.72;5094504;28;20397;-60
2022/11/12 01:07:42;;;;;;;6.65;3.97;;;;;;;9.86;100.00;100110.31;5107588;27;20389;-60
2022/11/12 01:10:09;;;;;;;7.68;3.60;;;;;;;9.92;100.00;100105.50;5098353;28;20034;-59
2022/11/12 01:12:35;;;;;;;8.13;3.92;;;;;;;9.56;100.00;100068.06;5096557;28;20575;-60
2022/11/12 01:15:01;;;;;;;6.38;3.63;;;;;;;9.76;100.00;100105.69;5093185;28;20114;-59
2022/11/12 01:17:26;;;;;;;6.85;3.40;;;;;;;9.75;100.00;100100.63;5098178;28;20035;-59
2022/11/12 01:19:52;;;;;;;6.13;3.53;;;;;;;9.74;100.00;100098.94;5085201;28;20508;-59
2022/11/12 01:22:17;;;;;;;6.35;3.70;;;;;;;9.71;100.00;100094.81;5096529;27;20032;-59
2022/11/12 01:24:43;;;;;;;5.97;3.10;;;;;;;9.69;100.00;100088.03;5101854;28;20821;-59
2022/11/12 01:27:08;;;;;;;8.32;3.92;;;;;;;9.72;100.00;100083.47;5101344;28;20502;-59
2022/11/12 01:29:33;;;;;;;6.43;3.05;;;;;;;9.71;100.00;100067.97;5101177;28;20783;-59
2022/11/12 01:31:59;;;;;;;6.40;3.72;;;;;;;9.72;100.00;100075.69;5099923;28;20015;-59
2022/11/12 01:34:25;;;;;;;6.25;3.20;;;;;;;9.71;100.00;100079.22;5097360;28;21341;-60
2022/11/12 01:36:50;;;;;;;6.22;3.45;;;;;;;9.60;100.00;100079.94;5098080;27;20119;-59
2022/11/12 01:39:16;;;;;;;6.35;3.20;;;;;;;9.63;100.00;100081.50;5088918;28;20667;-59
2022/11/12 01:41:41;;;;;;;5.88;3.45;;;;;;;9.61;100.00;100066.00;5080782;28;20023;-59
2022/11/12 01:44:13;;;;;;;6.57;3.17;;;;;;;9.73;100.00;100074.75;5101076;28;20074;-59
2022/11/12 01:46:47;;;;;;;5.93;2.97;;;;;;;9.72;100.00;100070.47;5098051;28;20015;-59
2022/11/12 01:49:34;;;;;;;5.72;2.90;;;;;;;9.43;100.00;100021.31;5098603;28;20024;-59
2022/11/12 01:52:20;;;;;;;6.28;3.08;;;;;;;9.68;100.00;100061.25;5110605;27;20031;-59
2022/11/12 01:54:48;;;;;;;5.20;3.00;;;;;;;9.67;100.00;100058.75;5083513;28;20118;-58
2022/11/12 01:57:16;;;;;;;5.95;2.78;;;;;;;9.47;100.00;100000.38;5096605;28;20150;-59
2022/11/12 01:59:44;;;;;;;6.63;2.65;;;;;;;9.70;100.00;100048.16;5091699;28;20459;-59
2022/11/12 02:02:10;;;;;;;5.72;2.88;;;;;;;9.70;100.00;100048.97;5098105;28;20034;-60
2022/11/12 02:04:37;;;;;;;6.30;3.13;;;;;;;9.56;100.00;100010.13;5097067;28;20032;-59
2022/11/12 02:07:05;;;;;;;6.13;2.67;;;;;;;9.67;100.00;100043.16;5115382;27;20027;-59
2022/11/12 02:09:31;;;;;;;5.50;2.70;;;;;;;9.56;100.00;100038.69;5116461;27;20031;-60
2022/11/12 02:11:57;;;;;;;6.97;2.58;;;;;;;9.60;100.00;100051.38;5097809;28;20629;-60
2022/11/12 02:14:22;;;;;;;5.95;2.78;;;;;;;9.65;100.00;100060.63;5083388;28;20035;-60
2022/11/12 02:16:49;;;;;;;5.03;2.72;;;;;;;9.42;100.00;100011.06;5079054;28;21819;-60
2022/11/12 02:19:15;;;;;;;6.03;2.63;;;;;;;9.39;100.00;99999.09;5099089;28;20035;-59
2022/11/12 02:21:41;;;;;;;6.05;2.58;;;;;;;9.65;100.00;100039.84;5099548;28;20047;-60
2022/11/12 02:24:12;;;;;;;7.10;2.83;;;;;;;9.44;100.00;99988.44;5098229;28;20402;-60
2022/11/12 02:26:41;;;;;;;4.95;2.42;;;;;;;9.39;100.00;99988.72;5100376;28;20020;-60
2022/11/12 02:29:07;;;;;;;5.23;2.53;;;;;;;9.57;100.00;100019.59;5081749;28;20027;-61
2022/11/12 02:31:33;;;;;;;7.03;3.10;;;;;;;9.52;100.00;100027.69;5099420;28;20366;-60
2022/11/12 02:33:58;;;;;;;5.10;2.80;;;;;;;9.31;100.00;99991.03;5081623;28;20030;-61
2022/11/12 02:36:24;;;;;;;5.35;2.65;;;;;;;9.56;100.00;100025.69;5095494;28;20035;-60
2022/11/12 02:38:50;;;;;;;5.32;2.63;;;;;;;9.56;100.00;100028.31;5099448;28;20560;-59
2022/11/12 02:41:15;;;;;;;4.82;2.70;;;;;;;9.55;100.00;100022.28;5097631;28;20432;-60
2022/11/12 02:43:41;;;;;;;6.57;2.70;;;;;;;9.60;100.00;100032.34;5099037;28;20055;-60
2022/11/12 02:46:07;;;;;;;4.90;2.10;;;;;;;9.65;100.00;100024.25;5098817;28;20031;-60
2022/11/12 02:48:32;;;;;;;5.00;2.25;;;;;;;9.68;100.00;100022.28;5081290;28;20077;-59
2022/11/12 02:50:58;;;;;;;6.47;2.75;;;;;;;9.66;100.00;100007.75;5072679;28;20024;-59
2022/11/12 02:53:23;;;;;;;4.93;2.38;;;;;;;9.55;100.00;99985.09;5095322;28;20034;-61
2022/11/12 02:55:49;;;;;;;5.97;2.47;;;;;;;9.80;100.00;100007.59;5098629;28;20812;-60
2022/11/12 02:58:14;;;;;;;5.95;2.50;;;;;;;9.80;100.00;100016.25;5101280;28;20031;-60
2022/11/12 03:00:39;;;;;;;5.85;2.50;;;;;;;9.73;100.00;100009.81;5098774;28;20051;-61
2022/11/12 03:03:05;;;;;;;4.57;2.28;;;;;;;9.53;100.00;99971.41;5091721;28;20036;-61
2022/11/12 03:05:32;;;;;;;6.07;2.50;;;;;;;9.82;100.00;100004.00;5092343;28;20581;-60
2022/11/12 03:07:59;;;;;;;6.45;2.33;;;;;;;9.80;100.00;100008.47;5099280;28;20379;-60
2022/11/12 03:10:25;;;;;;;4.55;2.15;;;;;;;9.58;100.00;99958.91;5114219;27;20038;-66
2022/11/12 03:12:51;;;;;;;5.28;2.38;;;;;;;9.88;100.00;99986.31;5100018;28;20580;-60
2022/11/12 03:15:17;;;;;;;4.95;2.20;;;;;;;9.84;100.00;99996.09;5112216;27;20573;-60
2022/11/12 03:17:43;;;;;;;7.65;2.47;;;;;;;9.79;100.00;99985.19;5100468;28;20146;-60
2022/11/12 03:20:09;;;;;;;5.82;2.60;;;;;;;9.78;100.00;99986.09;5102348;28;20063;-60
2022/11/12 03:22:36;;;;;;;4.75;2.20;;;;;;;9.68;100.00;99975.53;5082110;28;20051;-60
2022/11/12 03:25:01;;;;;;;6.10;2.28;;;;;;;9.66;100.00;99986.97;5101364;28;20036;-60
2022/11/12 03:27:26;;;;;;;6.15;2.22;;;;;;;9.48;100.00;99950.09;5101824;28;20494;-59
2022/11/12 03:29:52;;;;;;;4.60;2.20;;;;;;;9.59;100.00;99981.38;5097515;28;20397;-59
2022/11/12 03:32:17;;;;;;;7.45;2.50;;;;;;;9.57;100.00;99973.66;5103546;28;20028;-59
2022/11/12 03:34:42;;;;;;;8.85;2.22;;;;;;;9.62;100.00;99987.19;5115322;27;20110;-59
2022/11/12 03:37:09;;;;;;;4.43;2.20;;;;;;;9.67;100.00;99986.03;5103015;28;20028;-60
2022/11/12 03:39:35;;;;;;;4.70;2.30;;;;;;;9.64;100.00;99981.88;5099656;27;20023;-60
2022/11/12 03:42:01;;;;;;;4.68;1.80;;;;;;;9.61;100.00;99985.50;5102019;27;20026;-60
2022/11/12 03:44:26;;;;;;;4.72;2.08;;;;;;;9.63;100.00;99983.63;5096465;28;20378;-59
2022/11/12 03:46:52;;;;;;;4.32;1.92;;;;;;;9.38;100.00;99953.34;5092004;28;20034;-60
2022/11/12 03:49:17;;;;;;;4.75;2.00;;;;;;;9.60;100.00;99985.59;5087649;28;20039;-60
2022/11/12 03:51:42;;;;;;;5.00;1.80;;;;;;;9.62;100.00;99987.19;5102934;27;20016;-60
2022/11/12 03:54:08;;;;;;;5.82;1.70;;;;;;;9.60;100.00;99970.03;5111629;27;20036;-60
2022/11/12 03:56:33;;;;;;;4.75;2.10;;;;;;;9.65;100.00;99978.31;5095796;28;20026;-61
2022/11/12 03:58:59;;;;;;;5.18;2.28;;;;;;;9.54;100.00;99973.88;5098418;28;20042;-60
2022/11/12 04:01:24;;;;;;;4.75;2.08;;;;;;;9.62;100.00;99976.78;5107547;27;20027;-59
2022/11/12 04:03:50;;;;;;;4.65;2.00;;;;;;;9.66;100.00;99986.97;5103134;28;20544;-60
2022/11/12 04:08:59;;;;;;;4.18;1.80;;;;;;;9.70;100.00;99978.03;5091248;28;20043;-60
2022/11/12 04:11:24;;;;;;;5.80;1.92;;;;;;;9.63;100.00;99969.81;5097497;28;20027;-59
2022/11/12 04:13:50;;;;;;;4.57;2.17;;;;;;;9.62;100.00;99969.00;5100280;28;20600;-59
2022/11/12 04:21:55;;;;;;;4.45;1.83;;;;;;;9.70;100.00;99960.66;5092115;28;20108;-60
2022/11/12 04:27:19;;;;;;;4.20;1.80;;;;;;;9.60;100.00;99931.91;5096918;27;21284;-60
2022/11/12 04:32:32;;;;;;;3.75;1.60;;;;;;;9.62;100.00;99952.59;5093925;28;20299;-60
2022/11/12 04:34:57;;;;;;;5.35;1.77;;;;;;;9.67;100.00;99939.28;5100706;28;20038;-60
2022/11/12 04:37:25;;;;;;;4.13;1.70;;;;;;;9.50;100.00;99941.28;5099922;28;20031;-60
2022/11/12 04:39:51;;;;;;;5.55;1.65;;;;;;;9.44;100.00;99920.94;5098947;28;20043;-60
2022/11/12 04:45:04;;;;;;;4.30;1.67;;;;;;;9.69;100.00;99955.56;5097963;28;20055;-60
2022/11/12 04:47:40;;;;;;;4.22;1.70;;;;;;;9.63;100.00;99959.44;5083988;28;20709;-60
2022/11/12 04:50:14;;;;;;;4.47;1.40;;;;;;;9.55;100.00;99959.16;5113167;27;20114;-59
2022/11/12 04:52:39;;;;;;;3.65;1.40;;;;;;;9.59;100.00;99958.81;5099483;28;20204;-60
2022/11/12 04:55:05;;;;;;;4.05;1.42;;;;;;;9.62;100.00;99960.38;5093884;28;20190;-61
2022/11/12 04:57:31;;;;;;;4.18;1.58;;;;;;;9.58;100.00;99959.75;5100640;28;20031;-61
2022/11/12 04:59:56;;;;;;;4.75;1.80;;;;;;;9.36;100.00;99918.88;5111887;27;20036;-59
2022/11/12 05:02:22;;;;;;;4.03;1.48;;;;;;;9.26;100.00;99888.44;5098890;28;20030;-60
2022/11/12 05:04:47;;;;;;;4.10;1.55;;;;;;;9.60;100.00;99944.91;5098871;28;20028;-60
2022/11/12 05:07:13;;;;;;;4.47;1.60;;;;;;;9.67;100.00;99947.88;5096978;28;20032;-60
2022/11/12 05:09:39;;;;;;;4.63;1.50;;;;;;;9.62;100.00;99942.22;5083347;28;20450;-61
2022/11/12 05:12:04;;;;;;;4.75;1.50;;;;;;;9.35;100.00;99911.19;5099798;28;20131;-62
2022/11/12 05:14:30;;;;;;;3.90;1.50;;;;;;;9.59;100.00;99943.22;5118398;27;20039;-59
2022/11/12 05:16:55;;;;;;;4.13;1.50;;;;;;;9.28;100.00;99895.19;5095694;28;20432;-61
2022/11/12 05:19:20;;;;;;;3.75;1.50;;;;;;;9.46;100.00;99945.00;5095785;28;20046;-61
2022/11/12 05:22:04;;;;;;;4.25;1.52;;;;;;;9.45;100.00;99935.56;5097810;28;20542;-61
2022/11/12 05:24:40;;;;;;;4.65;1.55;;;;;;;9.39;100.00;99941.19;5098170;28;20091;-61
2022/11/12 05:27:17;;;;;;;4.50;1.83;;;;;;;9.43;100.00;99950.41;5096621;28;20041;-61
2022/11/12 05:29:42;;;;;;;4.47;1.60;;;;;;;9.46;100.00;99945.00;5097785;28;20478;-59
2022/11/12 05:32:10;;;;;;;3.55;1.27;;;;;;;9.53;100.00;99946.25;5100971;28;20039;-61
2022/11/12 05:34:36;;;;;;;4.28;1.50;;;;;;;9.47;100.00;99940.66;5094865;28;20080;-60
2022/11/12 05:37:03;;;;;;;3.67;1.30;;;;;;;9.50;100.00;99943.03;5100987;28;20023;-60
2022/11/12 05:39:28;;;;;;;4.30;1.50;;;;;;;9.54;100.00;99934.09;5075452;28;20032;-61
2022/11/12 05:41:54;;;;;;;3.97;1.40;;;;;;;9.53;100.00;99929.84;5098037;28;20036;-61
2022/11/12 05:44:20;;;;;;;3.97;1.30;;;;;;;9.52;100.00;99926.41;5096642;28;20113;-59
2022/11/12 05:46:45;;;;;;;3.85;1.38;;;;;;;9.57;100.00;99924.34;5112844;27;20092;-62
2022/11/12 05:49:11;;;;;;;3.17;1.23;;;;;;;9.59;100.00;99922.47;5094137;28;20103;-61
2022/11/12 05:51:37;;;;;;;6.43;1.60;;;;;;;9.62;100.00;99926.63;5095585;28;20103;-59
2022/11/12 05:54:02;;;;;;;3.55;1.20;;;;;;;9.61;100.00;99930.97;5098085;28;20044;-60
2022/11/12 05:56:28;;;;;;;4.38;1.58;;;;;;;9.37;100.00;99894.56;5100294;28;20076;-61
2022/11/12 05:58:53;;;;;;;3.88;1.40;;;;;;;9.74;100.00;99932.72;5077929;28;20512;-61
2022/11/12 06:01:19;;;;;;;3.75;1.48;;;;;;;9.70;100.00;99934.69;5097081;28;20020;-61
2022/11/12 06:03:44;;;;;;;3.75;1.35;;;;;;;9.67;100.00;99929.72;5097752;28;20032;-58
2022/11/12 06:06:09;;;;;;;3.72;1.50;;;;;;;9.77;100.00;99941.13;5094171;28;20053;-60
2022/11/12 06:08:35;;;;;;;3.92;1.25;;;;;;;9.77;100.00;99937.72;5092438;28;20501;-61
2022/11/12 06:11:00;;;;;;;3.95;1.40;;;;;;;9.71;100.00;99935.53;5079009;28;20039;-62
2022/11/12 06:13:26;;;;;;;4.10;1.50;;;;;;;9.66;100.00;99938.44;5096934;28;20138;-61
2022/11/12 06:15:52;;;;;;;3.80;1.50;;;;;;;9.63;100.00;99930.88;5095749;28;20183;-61
2022/11/12 06:18:18;;;;;;;4.63;1.50;;;;;;;9.68;100.00;99930.56;5097963;28;20031;-60
2022/11/12 06:20:44;;;;;;;4.18;1.50;;;;;;;9.66;100.00;99935.84;5130342;27;20088;-61
2022/11/12 06:23:09;;;;;;;3.95;1.48;;;;;;;9.66;100.00;99928.06;5095724;28;20035;-61
2022/11/12 06:25:34;;;;;;;4.82;1.30;;;;;;;9.63;100.00;99928.25;5100352;28;20656;-61
2022/11/12 06:28:00;;;;;;;4.50;1.35;;;;;;;9.58;100.00;99940.72;5077638;28;20063;-61
2022/11/12 06:30:25;;;;;;;6.85;1.35;;;;;;;9.53;100.00;99925.50;5101068;28;20047;-61
2022/11/12 06:32:51;;;;;;;4.60;1.45;;;;;;;9.56;100.00;99933.03;5095278;28;20153;-61
2022/11/12 06:35:17;;;;;;;3.97;1.60;;;;;;;9.61;100.00;99950.91;5099809;28;20032;-60
2022/11/12 06:37:46;;;;;;;3.45;1.25;;;;;;;9.57;100.00;99936.50;5099610;28;20035;-61
2022/11/12 06:40:12;;;;;;;3.63;1.35;;;;;;;9.68;100.00;99935.75;5078915;28;20027;-61
2022/11/12 06:42:37;;;;;;;3.83;1.60;;;;;;;9.52;100.00;99899.63;5086076;28;20145;-60
2022/11/12 06:45:03;;;;;;;5.18;1.73;;;;;;;9.75;100.00;99944.78;5117522;27;20024;-61
2022/11/12 06:47:28;;;;;;;4.07;1.60;;;;;;;9.72;100.00;99940.63;5105102;28;20104;-61
2022/11/12 06:49:54;;;;;;;4.93;1.48;;;;;;;9.76;100.00;99936.03;5104081;27;20091;-61
2022/11/12 06:52:19;;;;;;;3.55;1.10;;;;;;;9.80;100.00;99940.94;5101933;27;20023;-62
2022/11/12 06:54:45;;;;;;;3.85;1.48;;;;;;;9.73;100.00;99938.84;5095486;28;20615;-62
2022/11/12 06:57:10;;;;;;;4.10;1.40;;;;;;;9.70;100.00;99939.06;5083062;28;20608;-61
2022/11/12 06:59:35;;;;;;;4.85;1.60;;;;;;;9.72;100.00;99945.81;5080448;28;20463;-61
2022/11/12 07:02:01;;;;;;;4.00;1.45;;;;;;;9.74;100.00;99936.13;5099360;28;20134;-61
2022/11/12 07:04:26;;;;;;;4.55;1.70;;;;;;;9.76;100.00;99939.44;5101537;28;20529;-61
2022/11/12 07:06:52;;;;;;;4.47;1.63;;;;;;;9.56;100.00;99906.25;5102090;28;20122;-60
2022/11/12 07:09:17;;;;;;;3.70;1.33;;;;;;;9.86;100.00;99941.44;5097581;28;20047;-61
2022/11/12 07:11:43;;;;;;;5.72;1.30;;;;;;;9.80;100.00;99943.53;5112746;27;20036;-61
2022/11/12 07:14:08;;;;;;;5.50;1.70;;;;;;;9.83;100.00;99937.28;5091589;27;20665;-61
2022/11/12 07:16:34;;;;;;;3.60;1.30;;;;;;;9.77;100.00;99927.31;5104481;28;20844;-61
2022/11/12 07:19:00;;;;;;;3.75;1.35;;;;;;;9.79;100.00;99931.47;5098101;28;20093;-59
2022/11/12 07:21:25;;;;;;;3.58;1.30;;;;;;;9.75;100.00;99931.78;5100177;27;20645;-60
2022/11/12 07:23:51;;;;;;;4.35;1.60;;;;;;;9.76;100.00;99931.66;5083516;28;20023;-59
2022/11/12 07:26:21;;;;;;;4.10;1.50;;;;;;;9.60;100.00;99898.16;5099242;28;20197;-59
2022/11/12 07:28:49;;;;;;;3.72;1.10;;;;;;;9.88;100.00;99935.19;5096760;28;20032;-59
2022/11/12 07:31:17;;;;;;;3.80;1.40;;;;;;;9.86;100.00;99931.88;5079124;28;21083;-60
2022/11/12 07:33:43;;;;;;;4.65;1.67;;;;;;;9.99;100.00;99935.25;5103622;27;20418;-61
2022/11/12 07:36:11;;;;;;;3.50;1.27;;;;;;;9.99;100.00;99939.63;5087858;28;20031;-61
2022/11/12 07:38:38;;;;;;;3.33;1.20;;;;;;;10.03;100.00;99928.06;5092029;28;20031;-60
2022/11/12 07:41:16;;;;;;;3.70;1.20;;;;;;;10.08;100.00;99935.56;5099699;28;20031;-61
2022/11/12 07:43:42;;;;;;;3.20;1.30;;;;;;;9.68;99.95;99871.66;5093522;28;20079;-60
2022/11/12 07:46:10;;;;;;;3.50;1.20;;;;;;;10.06;99.49;99938.25;5096568;27;20035;-61
2022/11/12 07:48:37;;;;;;;3.95;1.20;;;;;;;10.02;100.00;99931.63;5095718;28;20123;-61
2022/11/12 07:51:11;;;;;;;4.03;1.30;;;;;;;10.05;100.00;99912.38;5099947;28;20046;-61
2022/11/12 07:53:37;;;;;;;3.53;1.20;;;;;;;10.04;99.45;99921.94;5098166;28;20028;-61
2022/11/12 07:56:03;;;;;;;3.60;1.20;;;;;;;10.14;100.00;99925.53;5110521;27;20035;-61
2022/11/12 07:58:30;;;;;;;3.35;1.25;;;;;;;10.20;100.00;99916.47;5097515;28;20032;-60
2022/11/12 08:00:56;;;;;;;3.33;1.05;;;;;;;10.12;99.77;99917.03;5099190;28;20083;-60
2022/11/12 08:03:22;;;;;;;3.53;1.20;;;;;;;10.11;98.97;99914.53;5079832;28;20120;-59
2022/11/12 08:05:47;;;;;;;3.25;1.23;;;;;;;10.16;98.97;99902.84;5099778;28;20500;-60
2022/11/12 08:08:13;;;;;;;3.95;1.50;;;;;;;10.08;98.93;99913.00;5097590;28;20099;-58
2022/11/12 08:10:38;;;;;;;3.58;1.27;;;;;;;10.14;99.34;99896.13;5094740;28;20118;-59
2022/11/12 08:13:04;;;;;;;4.13;1.30;;;;;;;10.23;100.00;99902.44;5095707;28;20130;-60
2022/11/12 08:15:30;;;;;;;3.60;1.27;;;;;;;10.34;99.92;99905.09;5095409;28;20097;-61
2022/11/12 08:17:55;;;;;;;3.42;1.30;;;;;;;10.38;100.00;99896.97;5110724;27;20039;-59
2022/11/12 08:20:21;;;;;;;4.07;1.20;;;;;;;10.33;99.34;99899.09;5096939;27;20042;-60
2022/11/12 08:22:47;;;;;;;3.60;1.15;;;;;;;10.30;99.06;99896.66;5096377;28;20027;-60
2022/11/12 08:25:12;;;;;;;2.97;1.10;;;;;;;10.36;98.47;99905.81;5096584;28;20047;-60
2022/11/12 08:27:38;;;;;;;3.97;1.55;;;;;;;10.45;98.51;99901.72;5094461;28;20032;-59
2022/11/12 08:30:04;;;;;;;3.25;1.30;;;;;;;10.54;99.13;99896.66;5098431;28;20023;-60
2022/11/12 08:32:30;;;;;;;4.55;1.58;;;;;;;10.49;98.07;99898.78;5100593;28;20850;-59
2022/11/12 08:34:55;;;;;;;4.85;1.80;;;;;;;10.52;98.48;99897.75;5093453;27;20110;-61
2022/11/12 08:37:21;;;;;;;4.40;1.30;;;;;;;10.50;98.99;99895.25;5092950;28;20020;-60
2022/11/12 08:39:46;;;;;;;4.10;1.30;;;;;;;10.53;99.88;99892.44;5084971;28;20541;-59
2022/11/12 08:42:11;;;;;;;3.65;1.58;;;;;;;10.58;100.00;99895.50;5097116;28;20023;-59
2022/11/12 08:44:37;;;;;;;5.78;2.20;;;;;;;10.38;100.00;99865.75;5091103;28;20046;-60
2022/11/12 08:47:03;;;;;;;6.53;2.70;;;;;;;10.65;100.00;99895.88;5097597;28;20020;-60
2022/11/12 08:49:29;;;;;;;7.07;2.22;;;;;;;10.64;100.00;99881.22;5112400;27;20055;-60
2022/11/12 08:51:54;;;;;;;7.85;3.55;;;;;;;10.82;100.00;99893.78;5109489;27;20047;-60
2022/11/12 08:54:20;;;;;;;7.95;4.35;;;;;;;10.78;100.00;99882.78;5093663;27;20164;-60
2022/11/12 08:56:46;;;;;;;7.30;3.17;;;;;;;10.81;100.00;99881.75;5093841;28;20031;-60
2022/11/12 08:59:11;;;;;;;5.45;2.58;;;;;;;10.88;100.00;99882.91;5093159;28;20135;-60
2022/11/12 09:01:37;;;;;;;4.35;1.70;;;;;;;10.98;100.00;99878.69;5081942;28;20020;-60
2022/11/12 09:04:02;;;;;;;4.05;1.58;;;;;;;11.03;99.76;99884.38;5095699;28;20047;-58
2022/11/12 09:06:27;;;;;;;5.53;2.20;;;;;;;11.04;100.00;99865.19;5098236;28;20027;-59
2022/11/12 09:08:53;;;;;;;5.55;2.60;;;;;;;10.87;99.03;99847.44;5090128;28;20741;-59
2022/11/12 09:11:19;;;;;;;5.00;2.10;;;;;;;11.07;99.18;99866.75;5090564;28;20441;-60
2022/11/12 09:13:44;;;;;;;5.18;1.95;;;;;;;10.85;98.33;99816.34;5096884;27;20457;-60
2022/11/12 09:16:09;;;;;;;9.55;3.95;;;;;;;11.14;99.90;99860.97;5080730;28;20092;-60
2022/11/12 09:18:35;;;;;;;9.70;4.18;;;;;;;11.20;100.00;99858.84;5079047;28;20069;-61
2022/11/12 09:21:07;;;;;;;8.82;3.88;;;;;;;10.99;100.00;99830.06;5082969;28;20032;-60
2022/11/12 09:23:33;;;;;;;6.95;3.72;;;;;;;11.20;99.24;99848.41;5082410;27;20027;-60
2022/11/12 09:25:59;;;;;;;6.50;2.67;;;;;;;11.20;97.89;99841.44;5085383;28;20906;-60
2022/11/12 09:28:24;;;;;;;6.75;2.60;;;;;;;11.28;99.25;99843.44;5084128;28;20027;-59
2022/11/12 09:30:51;;;;;;;6.72;2.42;;;;;;;11.40;98.19;99854.69;5061408;28;20032;-59
2022/11/12 09:33:39;;;;;;;5.25;2.30;;;;;;;11.46;97.74;99862.00;5081504;28;20032;-59
2022/11/12 09:36:05;;;;;;;5.78;2.40;;;;;;;11.48;96.71;99865.31;5080685;28;20122;-61
2022/11/12 09:38:31;;;;;;;4.50;1.80;;;;;;;11.45;95.54;99855.97;5080810;28;20410;-60
2022/11/12 09:41:02;;;;;;;4.93;2.05;;;;;;;11.47;97.17;99861.06;5099181;27;20043;-61
2022/11/12 09:43:31;;;;;;;4.05;1.50;;;;;;;11.47;94.85;99867.09;5084508;28;20085;-60
2022/11/12 09:46:11;;;;;;;4.00;1.50;;;;;;;11.49;97.55;99857.38;5096924;27;20039;-61
2022/11/12 09:48:46;;;;;;;3.72;1.27;;;;;;;11.28;96.93;99828.66;5080244;28;20073;-60
2022/11/12 09:51:25;;;;;;;4.80;1.38;;;;;;;11.53;98.51;99856.19;5097383;27;20043;-61
2022/11/12 09:53:59;;;;;;;5.55;1.50;;;;;;;11.61;98.48;99844.34;5080112;28;20031;-63
2022/11/12 09:56:29;;;;;;;3.65;1.33;;;;;;;11.67;97.53;99852.50;5099829;27;20031;-61
2022/11/12 09:59:28;;;;;;;5.57;1.65;;;;;;;11.61;96.32;99819.16;5091300;27;20036;-60
2022/11/12 10:02:28;;;;;;;5.88;1.50;;;;;;;11.78;95.49;99837.81;5002464;28;20321;-61
2022/11/12 10:05:21;;;;;;;2.88;1.10;;;;;;;11.79;94.66;99837.69;5071888;28;20051;-61
2022/11/12 10:08:06;;;;;;;4.72;1.48;;;;;;;11.61;95.87;99792.25;5078360;28;20114;-60
2022/11/12 10:10:33;;;;;;;6.57;1.60;;;;;;;11.93;93.92;99834.81;5082267;28;20030;-60
2022/11/12 10:13:08;;;;;;;4.05;1.80;;;;;;;11.93;92.19;99824.41;5091657;27;20035;-60
2022/11/12 10:18:36;;;;;;;4.05;1.45;;;;;;;11.98;92.13;99821.44;5085972;28;20050;-60
2022/11/12 10:21:10;;;;;;;3.95;1.50;;;;;;;11.91;91.58;99810.66;5081644;28;20122;-61
2022/11/12 10:23:41;;;;;;;4.80;1.80;;;;;;;12.05;91.55;99819.16;5085719;28;20063;-61
2022/11/12 10:26:18;;;;;;;3.90;1.50;;;;;;;11.78;91.25;99773.50;5065629;28;20039;-61
2022/11/12 10:28:56;;;;;;;4.55;1.75;;;;;;;12.03;91.69;99813.22;5078647;28;20023;-61
2022/11/12 10:31:21;;;;;;;4.47;1.80;;;;;;;11.83;90.18;99771.34;5079108;28;20040;-61
2022/11/12 10:33:47;;;;;;;4.75;1.75;;;;;;;11.88;90.84;99774.41;5096969;28;20032;-60
2022/11/12 10:36:20;;;;;;;4.13;1.95;;;;;;;12.16;89.42;99800.03;5096519;27;20379;-59
2022/11/12 10:38:48;;;;;;;4.20;1.80;;;;;;;12.24;89.46;99797.63;5081052;28;20803;-60
2022/11/12 10:41:26;;;;;;;5.03;1.58;;;;;;;12.14;89.75;99766.28;5086694;27;20023;-61
2022/11/12 10:44:02;;;;;;;4.90;1.80;;;;;;;12.35;90.16;99794.94;5083923;28;20036;-60
2022/11/12 10:46:36;;;;;;;5.07;1.60;;;;;;;12.44;88.48;99788.97;5065671;28;20032;-60
2022/11/12 10:49:05;;;;;;;3.60;1.38;;;;;;;12.42;87.73;99787.44;5091658;27;20496;-61
2022/11/12 10:51:32;;;;;;;;;;;;;;;12.47;87.67;99780.88;5065847;28;20119;-61
2022/11/12 10:53:58;;;;;;;4.10;1.40;;;;;;;12.50;88.10;99782.41;5078531;28;19927;-61
2022/11/12 10:56:26;;;;;;;3.40;1.17;;;;;;;12.48;87.89;99776.50;5095089;27;20031;-61
2022/11/12 10:59:17;;;;;;;3.72;1.17;;;;;;;12.58;89.87;99768.75;5067318;28;20023;-60
2022/11/12 11:01:43;;;;;;;2.90;1.08;;;;;;;12.57;88.30;99767.06;5077310;28;20135;-60
2022/11/12 11:04:37;;;;;;;3.95;1.10;;;;;;;12.47;86.37;99752.19;5082004;28;20028;-61
2022/11/12 11:07:23;;;;;;;3.15;1.10;;;;;;;12.49;86.50;99752.06;5080836;28;20129;-61
2022/11/12 11:09:54;;;;;;;3.28;1.20;;;;;;;12.55;87.97;99745.50;5098791;28;20028;-61
2022/11/12 11:12:33;;;;;;;3.60;1.10;;;;;;;12.57;86.69;99751.41;5099559;27;21138;-60
2022/11/12 11:15:06;;;;;;;4.05;1.63;;;;;;;12.61;87.23;99744.97;5099294;28;20301;-60
2022/11/12 11:17:33;;;;;;;3.67;1.33;;;;;;;12.65;88.38;99747.22;5095530;27;20039;-61
2022/11/12 11:19:59;;;;;;;3.63;1.20;;;;;;;12.50;86.77;99705.00;5085273;28;20092;-59
2022/11/12 11:22:40;;;;;;;3.15;1.15;;;;;;;12.71;85.47;99732.81;5087426;28;20048;-60
2022/11/12 11:25:26;;;;;;;2.95;1.00;;;;;;;12.79;86.10;99725.13;5088865;28;20196;-60
2022/11/12 11:28:46;;;;;;;4.45;1.20;;;;;;;12.79;86.59;99726.94;5099052;27;20075;-60
2022/11/12 11:31:31;;;;;;;;;;;;;;;12.63;86.56;99696.09;5055897;28;20024;-59
2022/11/12 11:34:06;;;;;;;4.15;1.40;;;;;;;12.59;84.73;99671.22;5041948;28;19912;-59
2022/11/12 11:36:41;;;;;;;3.63;1.23;;;;;;;12.88;83.76;99720.91;5078375;28;20039;-59
2022/11/12 11:39:24;;;;;;;3.15;1.05;;;;;;;12.83;85.39;99708.28;5102943;27;20027;-60
2022/11/12 11:41:58;;;;;;;2.95;1.00;;;;;;;12.74;85.08;99688.19;5109483;27;20044;-60
2022/11/12 11:44:55;;;;;;;3.00;1.10;;;;;;;12.49;85.20;99639.91;5097075;28;20016;-59
2022/11/12 11:47:32;;;;;;;3.53;1.17;;;;;;;12.86;84.42;99683.69;5099217;28;20602;-59
2022/11/12 11:50:03;;;;;;;5.47;1.40;;;;;;;12.86;83.97;99666.22;5099218;28;20064;-60
2022/11/12 11:52:44;;;;;;;3.60;1.20;;;;;;;12.99;85.46;99686.06;5096005;27;20028;-59
2022/11/12 11:55:21;;;;;;;3.50;1.17;;;;;;;12.78;84.21;99642.59;5097593;28;20053;-59
2022/11/12 11:58:05;;;;;;;5.00;1.02;;;;;;;12.76;84.11;99639.31;5099746;28;20134;-59